Time;durP1;ratioP1;P1;durP2;ratioP2;P2;SDS_P1;SDS_P2;PMS_P1;PMS_P2;Temp;Humidity;BMP_temperature;BMP_pressure;BME280_temperature;BME280_humidity;BME280_pressure;Samples;Min_cycle;Max_cycle;Signal;HPM_P1;HPM_P2
2022/07/28 00:02:15;;;;;;;3.35;1.52;;;;;;;29.22;36.86;98508.88;6102836;23;20243;-91
2022/07/28 00:04:40;;;;;;;3.85;2.08;;;;;;;29.15;36.83;98516.16;6128448;23;20159;-92
2022/07/28 00:07:06;;;;;;;5.85;1.98;;;;;;;29.12;36.83;98521.97;6102508;23;20180;-91
2022/07/28 00:09:31;;;;;;;5.35;1.63;;;;;;;29.17;36.74;98519.47;6128284;23;20152;-90
2022/07/28 00:11:57;;;;;;;2.80;1.42;;;;;;;29.22;37.18;98519.69;6127971;23;20458;-90
2022/07/28 00:14:23;;;;;;;4.18;1.83;;;;;;;29.26;37.01;98525.50;6128300;23;20162;-90
2022/07/28 00:16:49;;;;;;;5.07;1.67;;;;;;;29.26;36.74;98520.94;6127896;23;20176;-91
2022/07/28 00:19:15;;;;;;;3.38;1.67;;;;;;;29.29;37.69;98530.47;6102338;23;20580;-91
2022/07/28 00:21:40;;;;;;;5.68;2.03;;;;;;;29.35;36.67;98535.81;6127827;23;20206;-91
2022/07/28 00:24:06;;;;;;;5.32;1.50;;;;;;;29.40;36.42;98538.75;6102344;23;20159;-90
2022/07/28 00:26:31;;;;;;;6.40;2.13;;;;;;;29.39;36.90;98545.19;6102443;23;20595;-90
2022/07/28 00:28:57;;;;;;;4.03;1.85;;;;;;;29.30;37.96;98546.44;6102328;23;20576;-90
2022/07/28 00:31:22;;;;;;;3.70;1.95;;;;;;;29.14;37.97;98552.31;6127749;23;20160;-91
2022/07/28 00:33:48;;;;;;;3.33;1.45;;;;;;;29.07;38.07;98552.31;6102453;23;20254;-91
2022/07/28 00:36:13;;;;;;;4.53;1.63;;;;;;;29.01;37.85;98555.06;6128121;23;20144;-91
2022/07/28 00:38:40;;;;;;;5.30;1.98;;;;;;;28.96;38.33;98546.75;6102207;23;20164;-90
2022/07/28 00:41:11;;;;;;;4.43;1.80;;;;;;;28.93;38.31;98553.38;6127520;23;20151;-90
2022/07/28 00:43:41;;;;;;;5.30;1.90;;;;;;;28.90;38.61;98547.59;6102178;23;20246;-90
2022/07/28 00:46:07;;;;;;;4.03;2.53;;;;;;;28.89;37.80;98551.31;6127603;23;20179;-91
2022/07/28 00:48:37;;;;;;;4.57;2.10;;;;;;;28.78;38.06;98550.09;6127556;23;20148;-91
2022/07/28 00:51:03;;;;;;;7.65;1.88;;;;;;;28.62;38.53;98555.94;6102145;23;20166;-91
2022/07/28 00:53:29;;;;;;;4.10;2.15;;;;;;;28.53;38.94;98560.72;6102204;23;20484;-91
2022/07/28 00:55:56;;;;;;;3.78;1.65;;;;;;;28.56;38.67;98557.56;6102151;23;20619;-90
2022/07/28 00:58:21;;;;;;;4.30;1.92;;;;;;;28.43;39.29;98559.47;6127841;23;20152;-91
2022/07/28 01:00:47;;;;;;;4.60;2.17;;;;;;;28.31;40.30;98551.16;6127487;23;20160;-90
2022/07/28 01:03:13;;;;;;;4.00;1.88;;;;;;;28.29;40.03;98555.94;6101831;23;20598;-91
2022/07/28 01:05:51;;;;;;;3.75;2.03;;;;;;;28.26;40.49;98560.91;6127553;23;20156;-91
2022/07/28 01:08:31;;;;;;;4.45;1.83;;;;;;;28.22;40.38;98565.91;6128245;23;20168;-91
2022/07/28 01:11:28;;;;;;;4.60;1.77;;;;;;;28.10;40.71;98567.53;6102112;23;20156;-91
2022/07/28 01:14:14;;;;;;;4.20;1.85;;;;;;;28.06;41.21;98566.28;6102105;23;20152;-91
2022/07/28 01:16:52;;;;;;;3.20;1.83;;;;;;;27.96;41.67;98566.63;6101872;23;20148;-91
2022/07/28 01:19:32;;;;;;;4.63;2.42;;;;;;;27.86;42.10;98560.00;6102008;23;20242;-91
2022/07/28 01:22:00;;;;;;;3.03;1.50;;;;;;;27.62;42.64;98571.34;6101766;23;20185;-91
2022/07/28 01:24:37;;;;;;;5.05;2.08;;;;;;;27.44;42.80;98563.81;6127709;23;20223;-91
2022/07/28 01:27:09;;;;;;;5.38;2.15;;;;;;;27.30;42.84;98560.22;6127981;23;20163;-91
2022/07/28 01:30:03;;;;;;;2.95;1.58;;;;;;;27.28;43.29;98567.66;6101859;23;20186;-90
2022/07/28 01:32:36;;;;;;;3.95;1.95;;;;;;;27.38;43.26;98569.97;6101622;23;20505;-90
2022/07/28 01:35:10;;;;;;;6.50;2.05;;;;;;;27.48;42.47;98572.31;6127412;23;20132;-90
2022/07/28 01:37:42;;;;;;;8.27;2.07;;;;;;;27.44;42.90;98579.97;6101753;23;20198;-90
2022/07/28 01:40:09;;;;;;;3.50;1.80;;;;;;;27.40;43.00;98576.88;6127644;23;20136;-90
2022/07/28 01:42:40;;;;;;;6.07;2.20;;;;;;;27.47;42.19;98570.66;6101650;23;20156;-90
2022/07/28 01:45:07;;;;;;;4.57;1.80;;;;;;;27.52;42.44;98579.78;6127503;23;20144;-91
2022/07/28 01:47:34;;;;;;;4.95;1.30;;;;;;;27.43;43.51;98575.63;6101403;23;20282;-90
2022/07/28 01:50:03;;;;;;;4.68;1.95;;;;;;;27.34;43.65;98577.63;6101426;23;20156;-91
2022/07/28 01:52:30;;;;;;;3.67;1.70;;;;;;;27.34;42.98;98574.94;6101474;23;20643;-91
2022/07/28 01:54:57;;;;;;;4.25;1.83;;;;;;;27.35;43.57;98581.97;6101447;23;20239;-91
2022/07/28 01:57:24;;;;;;;4.53;1.83;;;;;;;27.36;43.63;98572.03;6126956;23;20148;-90
2022/07/28 01:59:52;;;;;;;3.72;1.92;;;;;;;27.29;43.87;98580.09;6101411;23;20514;-91
2022/07/28 02:02:20;;;;;;;3.75;1.90;;;;;;;27.17;44.22;98592.47;6127055;23;20223;-91
2022/07/28 02:04:48;;;;;;;3.88;2.00;;;;;;;27.15;44.39;98591.81;6126879;23;20151;-91
2022/07/28 02:07:17;;;;;;;8.80;2.25;;;;;;;27.09;44.05;98592.63;6101473;23;20267;-91
2022/07/28 02:09:44;;;;;;;4.35;2.05;;;;;;;27.06;43.87;98593.00;6126801;23;20158;-91
2022/07/28 02:12:13;;;;;;;4.13;1.48;;;;;;;27.00;43.78;98587.56;6127332;23;20148;-91
2022/07/28 02:14:41;;;;;;;3.50;1.80;;;;;;;27.00;43.81;98595.66;6100977;23;20155;-91
2022/07/28 02:17:13;;;;;;;4.82;2.35;;;;;;;26.98;45.06;98597.72;6101266;23;20180;-90
2022/07/28 02:19:41;;;;;;;6.45;2.13;;;;;;;26.94;45.05;98602.66;6101436;23;20271;-91
2022/07/28 02:22:08;;;;;;;4.95;2.05;;;;;;;26.86;45.18;98604.69;6101150;23;20175;-91
2022/07/28 02:24:34;;;;;;;3.05;1.70;;;;;;;26.84;45.08;98607.53;6126840;23;20152;-90
2022/07/28 02:27:08;;;;;;;4.55;2.17;;;;;;;26.76;45.60;98613.03;6127120;23;20175;-91
2022/07/28 02:29:56;;;;;;;3.47;1.80;;;;;;;26.79;45.41;98620.75;6126713;23;20553;-90
2022/07/28 02:32:47;;;;;;;2.92;1.52;;;;;;;26.77;45.22;98606.69;6126826;23;20195;-91
2022/07/28 02:35:24;;;;;;;4.95;2.10;;;;;;;26.71;45.46;98613.63;6101223;23;20159;-90
2022/07/28 02:37:56;;;;;;;7.18;2.47;;;;;;;26.71;45.46;98610.94;6126723;23;20171;-90
2022/07/28 02:40:23;;;;;;;6.32;2.38;;;;;;;26.67;45.97;98616.91;6102453;23;20522;-90
2022/07/28 02:42:51;;;;;;;5.13;2.37;;;;;;;26.64;46.20;98615.44;6126683;23;20148;-90
2022/07/28 02:45:21;;;;;;;4.97;1.93;;;;;;;26.61;46.38;98617.69;6101062;23;20568;-91
2022/07/28 02:47:52;;;;;;;3.50;1.87;;;;;;;26.58;45.77;98624.28;6126500;23;20175;-90
2022/07/28 02:50:22;;;;;;;4.40;2.13;;;;;;;26.57;46.12;98622.59;6126993;23;20136;-91
2022/07/28 02:52:48;;;;;;;7.20;2.20;;;;;;;26.60;45.93;98627.59;6126521;23;20556;-90
2022/07/28 02:55:16;;;;;;;5.27;2.00;;;;;;;26.61;46.30;98644.56;6126660;23;20218;-91
2022/07/28 02:57:43;;;;;;;5.10;2.10;;;;;;;26.53;46.80;98632.09;6126564;23;20144;-90
2022/07/28 03:00:10;;;;;;;3.50;2.10;;;;;;;26.46;46.27;98638.44;6101044;23;20472;-90
2022/07/28 03:02:36;;;;;;;4.13;2.10;;;;;;;26.48;46.28;98641.78;6127240;23;20160;-90
2022/07/28 03:05:03;;;;;;;7.27;2.30;;;;;;;26.49;46.27;98638.06;6101337;23;20155;-90
2022/07/28 03:07:33;;;;;;;3.87;2.20;;;;;;;26.56;46.28;98647.00;6126421;23;20175;-90
2022/07/28 03:09:58;;;;;;;5.18;2.55;;;;;;;26.45;46.35;98643.00;6126371;23;20152;-90
2022/07/28 03:12:25;;;;;;;5.13;2.50;;;;;;;26.42;45.78;98646.06;6126374;23;20209;-90
2022/07/28 03:14:51;;;;;;;4.95;2.20;;;;;;;26.48;45.17;98636.41;6127070;23;20152;-90
2022/07/28 03:17:18;;;;;;;7.80;2.17;;;;;;;26.53;45.45;98642.84;6100915;23;20504;-89
2022/07/28 03:19:43;;;;;;;7.17;3.10;;;;;;;26.64;45.44;98649.56;6100820;23;20224;-90
2022/07/28 03:22:09;;;;;;;7.67;2.83;;;;;;;26.70;45.59;98644.22;6126137;23;20583;-90
2022/07/28 03:24:40;;;;;;;8.47;3.40;;;;;;;26.75;45.99;98652.56;6126330;23;20219;-89
2022/07/28 03:27:29;;;;;;;5.77;2.97;;;;;;;26.83;45.94;98654.31;6128645;23;20172;-89
2022/07/28 03:30:04;;;;;;;8.33;3.00;;;;;;;26.91;45.71;98646.09;6128701;23;20215;-90
2022/07/28 03:32:35;;;;;;;8.20;2.90;;;;;;;26.94;46.32;98653.75;6102766;23;20472;-90
2022/07/28 03:35:00;;;;;;;6.73;3.40;;;;;;;27.00;46.16;98661.03;6128678;23;20144;-90
2022/07/28 03:37:37;;;;;;;5.40;3.38;;;;;;;27.02;46.49;98661.66;6103352;23;20166;-90
2022/07/28 03:40:04;;;;;;;8.48;3.78;;;;;;;27.00;46.87;98654.81;6128914;23;20282;-90
2022/07/28 03:42:32;;;;;;;6.47;3.40;;;;;;;27.00;47.14;98654.81;6128024;23;20151;-90
2022/07/28 03:44:59;;;;;;;6.67;3.67;;;;;;;27.07;47.17;98659.22;6127971;23;20151;-90
2022/07/28 03:47:24;;;;;;;9.73;3.83;;;;;;;27.13;47.23;98650.38;6128603;23;20172;-89
2022/07/28 03:49:50;;;;;;;7.53;3.75;;;;;;;27.19;47.31;98654.13;6128044;23;20147;-89
2022/07/28 03:52:16;;;;;;;10.63;4.22;;;;;;;27.26;47.46;98647.75;6128034;23;20182;-89
2022/07/28 03:54:42;;;;;;;10.80;4.07;;;;;;;27.30;47.17;98654.44;6102553;23;20178;-90
2022/07/28 03:57:08;;;;;;;10.10;4.17;;;;;;;27.32;47.68;98643.44;6127992;23;20560;-90
2022/07/28 03:59:33;;;;;;;6.00;2.95;;;;;;;27.34;47.73;98652.97;6128179;23;20160;-90
2022/07/28 04:01:58;;;;;;;8.20;3.60;;;;;;;27.42;47.51;98655.53;6128652;23;20155;-90
2022/07/28 04:04:24;;;;;;;5.73;3.40;;;;;;;27.47;47.34;98667.56;6128651;23;20186;-90
2022/07/28 04:06:49;;;;;;;6.47;3.53;;;;;;;27.48;47.59;98663.84;6127936;23;20628;-90
2022/07/28 04:09:18;;;;;;;8.70;4.10;;;;;;;27.52;47.79;98662.41;6128053;23;20152;-90
2022/07/28 04:11:43;;;;;;;6.38;3.15;;;;;;;27.57;47.37;98663.47;6127928;23;20163;-90
2022/07/28 04:14:09;;;;;;;6.30;3.50;;;;;;;27.61;47.14;98662.06;6102435;23;20155;-90
2022/07/28 04:16:34;;;;;;;8.30;3.88;;;;;;;27.66;46.73;98666.84;6099481;23;20600;-89
2022/07/28 04:18:59;;;;;;;5.82;3.35;;;;;;;27.69;46.99;98675.38;6126508;23;20162;-90
2022/07/28 04:21:25;;;;;;;6.07;3.30;;;;;;;27.72;47.11;98677.66;6126875;23;20660;-91
2022/07/28 04:23:51;;;;;;;6.75;3.45;;;;;;;27.75;47.28;98677.22;6098672;23;20147;-90
2022/07/28 04:26:17;;;;;;;6.15;3.67;;;;;;;27.76;47.30;98670.00;6126955;23;20151;-90
2022/07/28 04:28:44;;;;;;;8.20;3.72;;;;;;;27.75;47.09;98671.03;6126885;23;20183;-90
2022/07/28 04:31:09;;;;;;;5.07;2.97;;;;;;;27.80;47.22;98677.50;6125999;23;20148;-90
2022/07/28 04:33:35;;;;;;;5.47;3.17;;;;;;;27.80;47.78;98671.25;6127114;23;20496;-90
2022/07/28 04:36:00;;;;;;;6.35;3.40;;;;;;;27.85;47.33;98683.09;6102085;23;20243;-89
2022/07/28 04:38:26;;;;;;;6.97;3.40;;;;;;;27.85;47.62;98676.88;6101844;23;20151;-89
2022/07/28 04:40:52;;;;;;;7.57;4.03;;;;;;;27.92;47.80;98677.72;6102191;23;20186;-90
2022/07/28 04:43:17;;;;;;;9.40;3.80;;;;;;;27.91;47.62;98673.34;6127692;23;20226;-90
2022/07/28 04:45:45;;;;;;;12.32;3.92;;;;;;;27.81;47.90;98672.91;6127714;23;20148;-90
2022/07/28 04:48:11;;;;;;;8.35;3.75;;;;;;;27.81;48.42;98683.69;6127569;23;20258;-90
2022/07/28 04:50:39;;;;;;;8.65;4.00;;;;;;;27.79;48.29;98677.66;6127558;23;20183;-90
2022/07/28 04:53:05;;;;;;;5.80;3.53;;;;;;;27.84;47.61;98685.97;6127597;23;20158;-91
2022/07/28 04:55:30;;;;;;;6.13;3.47;;;;;;;27.90;48.04;98679.78;6102039;23;20191;-91
2022/07/28 04:57:56;;;;;;;6.60;3.35;;;;;;;28.00;47.96;98683.78;6127486;23;20148;-90
2022/07/28 05:00:22;;;;;;;6.85;3.97;;;;;;;28.04;47.64;98681.50;6102038;23;20156;-91
2022/07/28 05:02:47;;;;;;;8.43;3.47;;;;;;;28.10;47.81;98683.41;6127805;23;20214;-90
2022/07/28 05:05:13;;;;;;;7.88;4.38;;;;;;;28.20;47.14;98681.16;6102008;23;20488;-90
2022/07/28 05:07:40;;;;;;;8.10;4.22;;;;;;;28.26;46.66;98684.91;6127313;23;20736;-90
2022/07/28 05:10:07;;;;;;;7.55;3.85;;;;;;;28.24;46.03;98685.13;6101991;23;20156;-90
2022/07/28 05:12:32;;;;;;;7.00;3.83;;;;;;;28.21;45.90;98688.22;6127438;23;20148;-90
2022/07/28 05:14:58;;;;;;;7.30;3.75;;;;;;;28.24;46.51;98698.59;6101899;23;20166;-90
2022/07/28 05:17:24;;;;;;;8.07;4.13;;;;;;;28.25;46.89;98694.84;6127350;23;20148;-90
2022/07/28 05:19:50;;;;;;;5.95;3.50;;;;;;;28.31;46.31;98699.44;6101908;23;20658;-90
2022/07/28 05:22:16;;;;;;;5.55;3.17;;;;;;;28.41;46.51;98704.41;6127192;23;20435;-90
2022/07/28 05:28:20;;;;;;;6.95;3.97;;;;;;;28.56;46.01;98707.78;5988204;23;20255;-89
2022/07/28 05:30:45;;;;;;;5.75;3.28;;;;;;;28.68;45.80;98710.72;6127592;23;20463;-91
2022/07/28 05:33:13;;;;;;;6.72;3.70;;;;;;;28.80;45.77;98712.59;6101648;23;20551;-90
2022/07/28 05:35:39;;;;;;;10.38;3.60;;;;;;;28.85;45.92;98723.59;6127781;23;20215;-91
2022/07/28 05:38:04;;;;;;;9.23;3.58;;;;;;;28.94;45.64;98725.06;6101706;23;20151;-91
2022/07/28 05:40:30;;;;;;;8.93;3.72;;;;;;;28.98;45.36;98728.19;6127078;23;20586;-90
2022/07/28 05:42:55;;;;;;;5.28;3.30;;;;;;;29.06;45.52;98726.09;6126934;23;20152;-92
2022/07/28 05:45:21;;;;;;;8.23;4.05;;;;;;;29.20;44.83;98722.38;6101385;23;20170;-90
2022/07/28 05:47:49;;;;;;;8.52;3.97;;;;;;;29.21;44.79;98728.63;6126940;23;20250;-91
2022/07/28 05:50:16;;;;;;;6.15;3.85;;;;;;;29.24;45.08;98730.91;6127633;23;20152;-89
2022/07/28 05:52:42;;;;;;;8.82;3.72;;;;;;;29.27;44.57;98738.59;6101603;23;20152;-92
2022/07/28 05:55:08;;;;;;;8.18;3.67;;;;;;;29.26;44.47;98741.47;6126989;23;20222;-89
2022/07/28 05:57:35;;;;;;;8.27;3.95;;;;;;;29.36;44.29;98748.13;6126872;23;20175;-91
2022/07/28 06:00:01;;;;;;;7.93;3.55;;;;;;;29.36;44.70;98740.00;6127333;23;20152;-90
2022/07/28 06:02:27;;;;;;;7.88;3.63;;;;;;;29.44;44.30;98747.91;6127249;23;20148;-91
2022/07/28 06:04:52;;;;;;;8.60;4.10;;;;;;;29.58;44.07;98751.41;6127314;23;20183;-91
2022/07/28 06:07:18;;;;;;;7.50;4.20;;;;;;;29.61;43.95;98753.69;6127263;23;20176;-91
2022/07/28 06:09:43;;;;;;;6.90;4.05;;;;;;;29.61;44.63;98745.59;6101154;23;20199;-91
2022/07/28 06:12:22;;;;;;;6.50;3.80;;;;;;;29.54;43.70;98744.75;6127081;23;20147;-92
2022/07/28 06:14:47;;;;;;;10.35;4.15;;;;;;;29.55;44.32;98751.84;6099826;23;20576;-91
2022/07/28 06:17:14;;;;;;;7.47;4.25;;;;;;;29.69;44.14;98753.47;6101456;23;20166;-90
2022/07/28 06:19:41;;;;;;;9.00;4.30;;;;;;;29.74;43.91;98746.38;6127369;23;20171;-91
2022/07/28 06:22:06;;;;;;;6.95;3.60;;;;;;;29.84;43.84;98751.38;6127680;23;20174;-91
2022/07/28 06:24:32;;;;;;;6.97;4.43;;;;;;;29.97;43.94;98747.78;6101314;23;20159;-91
2022/07/28 06:26:59;;;;;;;7.28;3.95;;;;;;;30.16;43.61;98747.69;6126543;23;20518;-91
2022/07/28 06:29:25;;;;;;;6.80;3.72;;;;;;;30.26;42.98;98744.56;6127321;23;20230;-91
2022/07/28 06:31:50;;;;;;;8.57;3.90;;;;;;;30.30;43.61;98749.31;6127218;23;20242;-92
2022/07/28 06:34:16;;;;;;;8.02;3.63;;;;;;;30.52;42.97;98754.44;6101499;23;20498;-90
2022/07/28 06:36:41;;;;;;;5.53;3.97;;;;;;;30.67;41.57;98747.66;6101384;23;20152;-91
2022/07/28 06:39:09;;;;;;;7.65;4.07;;;;;;;30.85;39.98;98749.63;6101309;23;20186;-90
2022/07/28 06:41:40;;;;;;;6.60;2.90;;;;;;;30.98;39.63;98749.56;6126741;23;20203;-91
2022/07/28 06:44:05;;;;;;;11.80;4.00;;;;;;;31.02;39.21;98751.63;6126742;23;20206;-92
2022/07/28 06:46:31;;;;;;;5.95;2.47;;;;;;;31.26;38.76;98752.66;6102314;23;20254;-91
2022/07/28 06:48:56;;;;;;;8.65;2.88;;;;;;;31.45;38.89;98746.25;6126926;23;20230;-90
2022/07/28 06:51:22;;;;;;;5.20;2.90;;;;;;;31.63;38.38;98742.72;6127004;23;20152;-91
2022/07/28 06:53:47;;;;;;;4.15;2.85;;;;;;;31.83;37.31;98748.78;6126557;23;20579;-91
2022/07/28 06:56:13;;;;;;;6.05;2.85;;;;;;;32.02;37.60;98741.50;6126842;23;20152;-90
2022/07/28 06:58:39;;;;;;;5.25;2.00;;;;;;;32.17;37.05;98747.34;6101643;23;20162;-91
2022/07/28 07:01:27;;;;;;;7.05;2.28;;;;;;;32.37;36.62;98755.22;6126478;23;20148;-91
2022/07/28 07:03:53;;;;;;;4.47;2.40;;;;;;;32.51;35.85;98756.69;6101853;23;20573;-91
2022/07/28 07:06:18;;;;;;;6.40;3.15;;;;;;;32.63;35.97;98754.88;6126901;23;20148;-93
2022/07/28 07:08:47;;;;;;;3.92;2.30;;;;;;;32.74;35.66;98752.22;6126951;23;20147;-90
2022/07/28 07:11:12;;;;;;;3.38;1.92;;;;;;;32.84;34.88;98757.06;6100967;23;20155;-92
2022/07/28 07:13:46;;;;;;;7.65;2.08;;;;;;;33.01;35.35;98749.09;6101149;23;20151;-91
2022/07/28 07:16:11;;;;;;;3.97;2.20;;;;;;;33.19;35.46;98751.72;6101213;23;20170;-91
2022/07/28 07:18:40;;;;;;;6.75;1.63;;;;;;;33.42;33.87;98755.28;6101154;23;20619;-91
2022/07/28 07:21:05;;;;;;;5.40;1.83;;;;;;;33.59;33.32;98751.91;6101399;23;20158;-92
2022/07/28 07:23:30;;;;;;;5.32;1.92;;;;;;;33.68;34.02;98747.75;6126563;23;20167;-92
2022/07/28 07:25:56;;;;;;;3.00;1.60;;;;;;;33.82;33.32;98744.53;6101172;23;20290;-91
2022/07/28 07:28:21;;;;;;;3.65;1.88;;;;;;;33.97;33.23;98746.75;6101225;23;20626;-92
2022/07/28 07:30:47;;;;;;;2.47;1.58;;;;;;;34.16;33.10;98742.00;6101228;23;20147;-92
2022/07/28 07:33:13;;;;;;;4.45;1.88;;;;;;;34.45;32.68;98746.41;6101561;23;20166;-92
2022/07/28 07:35:38;;;;;;;4.35;2.20;;;;;;;34.62;31.96;98746.47;6102022;23;20152;-91
2022/07/28 07:38:04;;;;;;;3.33;1.80;;;;;;;34.81;31.01;98748.72;6101199;23;20619;-91
2022/07/28 07:40:33;;;;;;;4.10;2.13;;;;;;;34.95;31.20;98750.06;6101065;23;20226;-91
2022/07/28 07:42:58;;;;;;;3.83;1.88;;;;;;;35.02;31.38;98758.06;6101422;23;20160;-91
2022/07/28 07:45:23;;;;;;;7.95;2.33;;;;;;;35.10;31.66;98753.06;6101050;23;20152;-92
2022/07/28 07:47:49;;;;;;;3.85;2.13;;;;;;;35.25;31.62;98752.47;6101117;23;20176;-91
2022/07/28 07:50:14;;;;;;;3.28;2.08;;;;;;;35.44;30.83;98756.59;6100810;23;20240;-92
2022/07/28 07:52:40;;;;;;;4.82;2.13;;;;;;;35.46;30.85;98764.53;6100991;23;20156;-94
2022/07/28 07:55:06;;;;;;;3.97;2.00;;;;;;;35.31;31.37;98751.50;6101435;23;20160;-92
2022/07/28 07:57:31;;;;;;;4.35;1.95;;;;;;;35.75;31.58;98747.81;6126709;23;20219;-92
2022/07/28 07:59:57;;;;;;;4.50;2.35;;;;;;;35.78;31.03;98746.50;6101815;23;20522;-92
2022/07/28 08:02:22;;;;;;;4.82;1.95;;;;;;;35.92;30.04;98745.06;6101446;23;20466;-92
2022/07/28 08:04:48;;;;;;;8.30;2.80;;;;;;;36.21;30.67;98737.53;6101076;23;20152;-92
2022/07/28 08:07:13;;;;;;;6.00;2.75;;;;;;;36.50;30.06;98743.63;6100807;23;20515;-93
2022/07/28 08:09:39;;;;;;;5.07;2.45;;;;;;;36.60;29.33;98741.81;6101695;23;20213;-93
2022/07/28 08:12:04;;;;;;;3.97;2.45;;;;;;;36.51;29.21;98747.97;6101833;23;20576;-93
2022/07/28 08:14:30;;;;;;;4.22;2.45;;;;;;;36.55;28.87;98739.03;6102722;23;20242;-92
2022/07/28 08:16:57;;;;;;;4.88;2.53;;;;;;;36.35;29.72;98739.59;6102669;23;20170;-92
2022/07/28 08:19:23;;;;;;;5.32;2.80;;;;;;;36.60;29.89;98739.09;6103015;23;20170;-91
2022/07/28 08:21:49;;;;;;;5.85;2.55;;;;;;;36.88;29.41;98743.44;6128441;23;20167;-91
2022/07/28 08:24:15;;;;;;;7.20;3.08;;;;;;;37.00;28.75;98735.09;6103413;23;20548;-92
2022/07/28 08:26:40;;;;;;;4.95;2.92;;;;;;;36.85;28.76;98731.13;6102668;23;20194;-93
2022/07/28 08:29:06;;;;;;;8.02;2.58;;;;;;;36.46;29.15;98729.59;6102580;23;20160;-92
2022/07/28 08:31:31;;;;;;;6.63;2.80;;;;;;;36.64;28.48;98734.75;6102726;23;20156;-92
2022/07/28 08:33:57;;;;;;;4.43;2.47;;;;;;;36.34;29.19;98737.13;6102636;23;20151;-93
2022/07/28 08:36:23;;;;;;;10.13;2.60;;;;;;;36.62;29.13;98738.81;6102946;23;20218;-92
2022/07/28 08:38:48;;;;;;;6.47;2.30;;;;;;;36.56;28.75;98734.41;6102721;23;20169;-92
2022/07/28 08:41:53;;;;;;;5.43;2.05;;;;;;;37.05;29.99;98726.94;6102436;23;20163;-93
2022/07/28 08:44:28;;;;;;;5.90;1.98;;;;;;;37.30;29.07;98730.69;6102467;23;20571;-94
2022/07/28 08:46:54;;;;;;;4.60;2.10;;;;;;;37.35;27.73;98736.19;6102546;23;20481;-93
2022/07/28 08:49:37;;;;;;;4.18;2.30;;;;;;;37.43;27.19;98729.44;6102562;23;20163;-93
2022/07/28 08:52:03;;;;;;;5.60;2.28;;;;;;;37.69;27.83;98720.28;6127731;23;20151;-93
2022/07/28 08:54:29;;;;;;;5.20;1.48;;;;;;;37.95;26.23;98734.94;6127773;23;20215;-92
2022/07/28 08:56:56;;;;;;;5.20;2.25;;;;;;;38.06;26.01;98726.53;6127952;23;20143;-92
2022/07/28 08:59:23;;;;;;;4.60;1.52;;;;;;;38.20;25.47;98729.59;6102381;23;20599;-92
2022/07/28 09:01:48;;;;;;;6.57;1.67;;;;;;;38.25;26.59;98728.78;6127718;23;20159;-92
2022/07/28 09:04:21;;;;;;;3.80;2.15;;;;;;;38.43;25.71;98734.63;6127654;23;20152;-93
2022/07/28 09:06:49;;;;;;;5.43;2.35;;;;;;;38.68;26.20;98731.91;6127453;23;20175;-92
2022/07/28 09:09:15;;;;;;;2.95;1.75;;;;;;;38.71;25.62;98733.28;6102184;23;20155;-92
2022/07/28 09:11:41;;;;;;;5.30;2.20;;;;;;;38.73;25.41;98728.38;6102244;23;20171;-92
2022/07/28 09:14:07;;;;;;;3.58;1.40;;;;;;;38.64;25.24;98730.00;6127660;23;20147;-94
2022/07/28 09:16:33;;;;;;;2.88;1.42;;;;;;;38.75;25.86;98728.97;6102161;23;20541;-92
2022/07/28 09:18:58;;;;;;;3.75;1.95;;;;;;;39.00;24.82;98728.13;6127634;23;20572;-92
2022/07/28 09:21:24;;;;;;;5.22;1.60;;;;;;;39.01;24.95;98733.34;6127409;23;20218;-93
2022/07/28 09:23:49;;;;;;;4.40;1.85;;;;;;;38.73;23.82;98722.91;6102077;23;20167;-93
2022/07/28 09:26:16;;;;;;;3.15;1.80;;;;;;;38.39;24.80;98721.75;6127537;23;20203;-92
2022/07/28 09:29:02;;;;;;;6.22;1.88;;;;;;;38.67;24.56;98730.28;6102105;23;20156;-96
2022/07/28 09:31:29;;;;;;;3.30;1.60;;;;;;;38.62;24.74;98730.28;6102031;23;20576;-93
2022/07/28 09:34:03;;;;;;;4.65;1.58;;;;;;;38.47;24.59;98718.47;6102277;23;20194;-92
2022/07/28 09:36:39;;;;;;;5.25;2.20;;;;;;;38.80;25.03;98734.44;6127613;23;20222;-93
2022/07/28 09:39:05;;;;;;;11.02;2.30;;;;;;;39.02;24.92;98723.22;6101745;23;20159;-94
2022/07/28 09:41:56;;;;;;;2.72;1.70;;;;;;;38.86;24.09;98721.56;6101979;23;20229;-94
2022/07/28 09:44:23;;;;;;;3.05;1.70;;;;;;;39.10;24.39;98717.19;6101995;23;20152;-93
2022/07/28 09:47:17;;;;;;;4.32;1.77;;;;;;;38.54;24.09;98714.38;6127326;23;20614;-94
2022/07/28 09:49:45;;;;;;;1.88;1.02;;;;;;;38.10;25.79;98718.63;6101583;23;20156;-93
2022/07/28 09:52:10;;;;;;;4.72;1.75;;;;;;;37.92;25.03;98706.19;6101945;23;20160;-94
2022/07/28 09:54:36;;;;;;;3.30;1.92;;;;;;;38.18;25.52;98706.31;6101597;23;20668;-93
2022/07/28 09:57:11;;;;;;;;;;;;;;;;;;;;;
2022/07/28 09:59:58;;;;;;;3.20;1.55;;;;;;;39.17;25.50;98707.59;6127968;23;20510;-94
2022/07/28 10:02:30;;;;;;;2.88;1.85;;;;;;;39.38;24.39;98707.56;6101990;23;20158;-92
2022/07/28 10:04:56;;;;;;;3.05;1.85;;;;;;;39.59;23.79;98700.94;6101600;23;20148;-92
2022/07/28 10:07:28;;;;;;;2.92;1.80;;;;;;;39.29;23.63;98710.03;6102188;23;20222;-94
2022/07/28 10:10:12;;;;;;;5.15;1.88;;;;;;;39.41;23.15;98707.03;6101880;23;20564;-94
2022/07/28 10:12:38;;;;;;;3.10;1.45;;;;;;;39.71;23.42;98705.03;6101697;23;20259;-91
2022/07/28 10:17:59;;;;;;;3.67;1.73;;;;;;;39.97;23.43;98704.94;6127304;23;20194;-92
2022/07/28 10:20:30;;;;;;;2.42;1.25;;;;;;;39.94;24.09;98700.84;6101541;23;20175;-91
2022/07/28 10:23:02;;;;;;;3.25;1.65;;;;;;;39.56;23.51;98709.72;6101856;23;20171;-92
2022/07/28 10:25:29;;;;;;;3.45;1.77;;;;;;;39.45;23.55;98691.63;6127501;23;20143;-94
2022/07/28 10:27:58;;;;;;;5.05;2.55;;;;;;;39.89;23.95;98687.13;6101791;23;20212;-92
2022/07/28 10:30:24;;;;;;;3.85;1.85;;;;;;;40.00;23.60;98694.22;6101955;23;20564;-92
2022/07/28 10:32:56;;;;;;;4.03;1.90;;;;;;;40.33;23.01;98687.22;6126885;23;20148;-90
2022/07/28 10:35:24;;;;;;;8.85;1.92;;;;;;;40.11;23.82;98684.88;6101116;23;20239;-92
2022/07/28 10:38:07;;;;;;;2.83;1.70;;;;;;;40.09;23.09;98698.06;6101441;23;20155;-92
2022/07/28 10:40:52;;;;;;;3.60;2.13;;;;;;;40.45;23.20;98688.50;6102910;23;20147;-92
2022/07/28 10:43:20;;;;;;;3.40;2.03;;;;;;;40.33;23.42;98679.78;6101361;23;20152;-93
2022/07/28 10:45:47;;;;;;;5.13;1.98;;;;;;;40.53;23.07;98678.88;6102024;23;20170;-94
2022/07/28 10:48:13;;;;;;;2.58;1.65;;;;;;;40.54;22.51;98671.44;6101265;23;20183;-92
2022/07/28 10:50:55;;;;;;;5.55;2.10;;;;;;;40.41;23.13;98673.69;6101263;23;20222;-93
2022/07/28 10:53:37;;;;;;;3.00;1.80;;;;;;;40.35;23.03;98672.09;6101446;23;20163;-93
2022/07/28 10:56:10;;;;;;;5.05;2.40;;;;;;;40.38;23.52;98671.53;6126730;23;20571;-91
2022/07/28 10:58:49;;;;;;;2.90;1.90;;;;;;;40.73;23.09;98672.38;6127138;23;20563;-93
2022/07/28 11:01:37;;;;;;;3.78;2.30;;;;;;;40.48;23.06;98674.25;6101793;23;20166;-92
2022/07/28 11:04:02;;;;;;;4.25;2.25;;;;;;;39.77;23.61;98671.00;6101275;23;20630;-94
2022/07/28 11:06:37;;;;;;;4.05;2.03;;;;;;;40.18;23.72;98666.16;6101707;23;20155;-92
2022/07/28 11:09:14;;;;;;;4.28;1.98;;;;;;;40.59;22.77;98675.00;6102077;23;20179;-92
2022/07/28 11:11:45;;;;;;;3.95;2.35;;;;;;;40.81;23.13;98660.78;6101218;23;20162;-93
2022/07/28 11:14:23;;;;;;;5.13;2.45;;;;;;;40.28;24.14;98668.03;6127019;23;20158;-92
2022/07/28 11:16:49;;;;;;;3.30;2.25;;;;;;;39.91;25.13;98666.53;6101652;23;20155;-92
2022/07/28 11:19:17;;;;;;;5.43;2.20;;;;;;;39.92;25.32;98659.13;6126749;23;20152;-91
2022/07/28 11:22:14;;;;;;;5.00;2.05;;;;;;;40.44;23.81;98659.38;6101103;23;20172;-93
2022/07/28 11:25:03;;;;;;;4.03;2.00;;;;;;;40.49;24.67;98653.06;6101170;23;20202;-92
2022/07/28 11:27:50;;;;;;;4.35;2.25;;;;;;;40.53;24.10;98654.13;6101105;23;20190;-92
2022/07/28 11:30:30;;;;;;;4.32;2.10;;;;;;;40.95;23.36;98637.88;6101235;23;20507;-92
2022/07/28 11:32:56;;;;;;;3.80;2.22;;;;;;;40.92;24.23;98651.38;6127557;23;20139;-92
2022/07/28 11:35:30;;;;;;;3.00;1.80;;;;;;;40.99;23.61;98640.84;6101221;23;20160;-92
2022/07/28 11:38:01;;;;;;;6.53;2.55;;;;;;;41.32;23.55;98629.00;6101497;23;20144;-93
2022/07/28 11:40:37;;;;;;;3.20;2.00;;;;;;;41.52;23.84;98634.25;6101553;23;20592;-92
2022/07/28 11:43:21;;;;;;;4.97;2.28;;;;;;;41.45;24.52;98633.78;6101091;23;20160;-92
2022/07/28 11:46:07;;;;;;;4.07;2.13;;;;;;;40.93;24.69;98636.53;6127552;23;20184;-93
2022/07/28 11:48:33;;;;;;;3.50;2.30;;;;;;;41.08;24.65;98633.63;6129286;23;20234;-92
2022/07/28 11:51:37;;;;;;;4.93;2.22;;;;;;;40.24;24.22;98629.31;6128929;23;20152;-93